sensor_id;sensor_type;location;lat;lon;timestamp;P1;durP1;ratioP1;P2;durP2;ratioP2
42840;SDS011;28491;46.898;7.660;2023-09-08T00:00:47;10.38;;;7.90;;
42840;SDS011;28491;46.898;7.660;2023-09-08T00:03:13;9.50;;;7.93;;
42840;SDS011;28491;46.898;7.660;2023-09-08T00:05:38;8.48;;;7.65;;
42840;SDS011;28491;46.898;7.660;2023-09-08T00:08:04;12.75;;;8.10;;
42840;SDS011;28491;46.898;7.660;2023-09-08T00:10:30;11.10;;;8.25;;
42840;SDS011;28491;46.898;7.660;2023-09-08T00:12:55;9.73;;;7.43;;
42840;SDS011;28491;46.898;7.660;2023-09-08T00:15:21;9.43;;;7.57;;
42840;SDS011;28491;46.898;7.660;2023-09-08T00:17:46;11.60;;;8.15;;
42840;SDS011;28491;46.898;7.660;2023-09-08T00:20:12;9.35;;;7.85;;
42840;SDS011;28491;46.898;7.660;2023-09-08T00:22:38;9.15;;;7.50;;
42840;SDS011;28491;46.898;7.660;2023-09-08T00:25:04;8.38;;;7.47;;
42840;SDS011;28491;46.898;7.660;2023-09-08T00:27:30;12.77;;;8.13;;
42840;SDS011;28491;46.898;7.660;2023-09-08T00:29:56;11.52;;;7.55;;
42840;SDS011;28491;46.898;7.660;2023-09-08T00:32:22;9.43;;;7.82;;
42840;SDS011;28491;46.898;7.660;2023-09-08T00:34:48;8.80;;;7.93;;
42840;SDS011;28491;46.898;7.660;2023-09-08T00:37:13;10.77;;;7.30;;
42840;SDS011;28491;46.898;7.660;2023-09-08T00:39:39;8.50;;;7.40;;
42840;SDS011;28491;46.898;7.660;2023-09-08T00:42:06;11.40;;;7.68;;
42840;SDS011;28491;46.898;7.660;2023-09-08T00:44:34;8.80;;;7.80;;
42840;SDS011;28491;46.898;7.660;2023-09-08T00:47:00;8.00;;;7.20;;
42840;SDS011;28491;46.898;7.660;2023-09-08T00:49:25;8.73;;;7.78;;
42840;SDS011;28491;46.898;7.660;2023-09-08T00:51:51;10.75;;;7.70;;
42840;SDS011;28491;46.898;7.660;2023-09-08T00:54:17;9.50;;;8.35;;
42840;SDS011;28491;46.898;7.660;2023-09-08T00:56:43;9.25;;;7.57;;
42840;SDS011;28491;46.898;7.660;2023-09-08T00:59:11;10.52;;;8.05;;
42840;SDS011;28491;46.898;7.660;2023-09-08T01:01:37;9.70;;;8.25;;
42840;SDS011;28491;46.898;7.660;2023-09-08T01:04:02;9.60;;;8.55;;
42840;SDS011;28491;46.898;7.660;2023-09-08T01:06:28;9.30;;;7.82;;
42840;SDS011;28491;46.898;7.660;2023-09-08T01:08:55;14.23;;;8.98;;
42840;SDS011;28491;46.898;7.660;2023-09-08T01:11:21;9.88;;;7.43;;
42840;SDS011;28491;46.898;7.660;2023-09-08T01:13:47;10.35;;;8.13;;
42840;SDS011;28491;46.898;7.660;2023-09-08T01:16:12;11.85;;;7.80;;
42840;SDS011;28491;46.898;7.660;2023-09-08T01:18:38;10.43;;;8.40;;
42840;SDS011;28491;46.898;7.660;2023-09-08T01:21:13;9.65;;;7.40;;
42840;SDS011;28491;46.898;7.660;2023-09-08T01:24:17;10.32;;;8.52;;
42840;SDS011;28491;46.898;7.660;2023-09-08T01:26:52;10.32;;;8.57;;
42840;SDS011;28491;46.898;7.660;2023-09-08T01:29:18;9.13;;;7.75;;
42840;SDS011;28491;46.898;7.660;2023-09-08T01:31:44;10.93;;;7.90;;
42840;SDS011;28491;46.898;7.660;2023-09-08T01:34:11;14.73;;;8.88;;
42840;SDS011;28491;46.898;7.660;2023-09-08T01:36:38;11.07;;;7.93;;
42840;SDS011;28491;46.898;7.660;2023-09-08T01:39:03;9.82;;;7.97;;
42840;SDS011;28491;46.898;7.660;2023-09-08T01:41:29;9.60;;;7.78;;
42840;SDS011;28491;46.898;7.660;2023-09-08T01:43:56;11.10;;;7.90;;
42840;SDS011;28491;46.898;7.660;2023-09-08T01:46:22;11.50;;;7.93;;
42840;SDS011;28491;46.898;7.660;2023-09-08T01:48:48;8.98;;;8.07;;
42840;SDS011;28491;46.898;7.660;2023-09-08T01:51:14;9.68;;;8.68;;
42840;SDS011;28491;46.898;7.660;2023-09-08T01:53:39;9.23;;;8.30;;
42840;SDS011;28491;46.898;7.660;2023-09-08T01:56:05;9.25;;;8.25;;
42840;SDS011;28491;46.898;7.660;2023-09-08T01:58:30;8.43;;;7.35;;
42840;SDS011;28491;46.898;7.660;2023-09-08T02:00:57;9.55;;;7.28;;
42840;SDS011;28491;46.898;7.660;2023-09-08T02:03:28;9.07;;;8.05;;
42840;SDS011;28491;46.898;7.660;2023-09-08T02:05:53;9.02;;;7.97;;
42840;SDS011;28491;46.898;7.660;2023-09-08T02:08:19;11.07;;;7.95;;
42840;SDS011;28491;46.898;7.660;2023-09-08T02:10:44;12.98;;;8.35;;
42840;SDS011;28491;46.898;7.660;2023-09-08T02:13:10;10.02;;;7.57;;
42840;SDS011;28491;46.898;7.660;2023-09-08T02:15:35;15.18;;;8.77;;
42840;SDS011;28491;46.898;7.660;2023-09-08T02:18:01;10.68;;;8.25;;
42840;SDS011;28491;46.898;7.660;2023-09-08T02:20:27;9.27;;;7.28;;
42840;SDS011;28491;46.898;7.660;2023-09-08T02:22:53;11.35;;;7.68;;
42840;SDS011;28491;46.898;7.660;2023-09-08T02:25:20;8.43;;;7.35;;
42840;SDS011;28491;46.898;7.660;2023-09-08T02:27:47;9.93;;;7.90;;
42840;SDS011;28491;46.898;7.660;2023-09-08T02:30:13;14.07;;;9.32;;
42840;SDS011;28491;46.898;7.660;2023-09-08T02:32:38;10.43;;;8.93;;
42840;SDS011;28491;46.898;7.660;2023-09-08T02:35:07;10.02;;;7.20;;
42840;SDS011;28491;46.898;7.660;2023-09-08T02:37:33;11.68;;;8.73;;
42840;SDS011;28491;46.898;7.660;2023-09-08T02:39:59;8.90;;;7.78;;
42840;SDS011;28491;46.898;7.660;2023-09-08T02:42:24;11.10;;;7.68;;
42840;SDS011;28491;46.898;7.660;2023-09-08T02:44:50;10.73;;;8.40;;
42840;SDS011;28491;46.898;7.660;2023-09-08T02:47:15;11.52;;;7.78;;
42840;SDS011;28491;46.898;7.660;2023-09-08T02:49:41;11.88;;;7.53;;
42840;SDS011;28491;46.898;7.660;2023-09-08T02:52:06;11.35;;;8.07;;
42840;SDS011;28491;46.898;7.660;2023-09-08T02:54:32;8.43;;;6.88;;
42840;SDS011;28491;46.898;7.660;2023-09-08T02:56:58;10.02;;;7.57;;
42840;SDS011;28491;46.898;7.660;2023-09-08T02:59:23;10.27;;;7.38;;
42840;SDS011;28491;46.898;7.660;2023-09-08T03:01:49;9.95;;;7.43;;
42840;SDS011;28491;46.898;7.660;2023-09-08T03:04:14;8.55;;;7.65;;
42840;SDS011;28491;46.898;7.660;2023-09-08T03:06:40;11.32;;;7.93;;
42840;SDS011;28491;46.898;7.660;2023-09-08T03:09:05;9.13;;;7.65;;
42840;SDS011;28491;46.898;7.660;2023-09-08T03:11:31;9.27;;;7.80;;
42840;SDS011;28491;46.898;7.660;2023-09-08T03:13:56;10.85;;;7.30;;
42840;SDS011;28491;46.898;7.660;2023-09-08T03:16:22;9.55;;;7.50;;
42840;SDS011;28491;46.898;7.660;2023-09-08T03:18:47;9.82;;;8.77;;
42840;SDS011;28491;46.898;7.660;2023-09-08T03:21:13;9.63;;;7.65;;
42840;SDS011;28491;46.898;7.660;2023-09-08T03:23:40;8.48;;;7.28;;
42840;SDS011;28491;46.898;7.660;2023-09-08T03:26:07;9.65;;;7.95;;
42840;SDS011;28491;46.898;7.660;2023-09-08T03:28:34;11.60;;;8.80;;
42840;SDS011;28491;46.898;7.660;2023-09-08T03:31:00;9.15;;;7.22;;
42840;SDS011;28491;46.898;7.660;2023-09-08T03:33:27;11.88;;;8.35;;
42840;SDS011;28491;46.898;7.660;2023-09-08T03:35:52;12.57;;;8.20;;
42840;SDS011;28491;46.898;7.660;2023-09-08T03:38:18;9.38;;;6.97;;
42840;SDS011;28491;46.898;7.660;2023-09-08T03:40:44;9.15;;;7.68;;
42840;SDS011;28491;46.898;7.660;2023-09-08T03:43:09;8.73;;;7.60;;
42840;SDS011;28491;46.898;7.660;2023-09-08T03:45:35;9.32;;;7.65;;
42840;SDS011;28491;46.898;7.660;2023-09-08T03:48:00;11.05;;;8.05;;
42840;SDS011;28491;46.898;7.660;2023-09-08T03:50:26;11.10;;;8.68;;
42840;SDS011;28491;46.898;7.660;2023-09-08T03:52:52;10.30;;;8.00;;
42840;SDS011;28491;46.898;7.660;2023-09-08T03:55:18;8.75;;;7.85;;
42840;SDS011;28491;46.898;7.660;2023-09-08T03:57:44;8.82;;;7.93;;
42840;SDS011;28491;46.898;7.660;2023-09-08T04:00:10;10.77;;;8.88;;
42840;SDS011;28491;46.898;7.660;2023-09-08T04:02:36;13.10;;;8.85;;
42840;SDS011;28491;46.898;7.660;2023-09-08T04:05:02;9.93;;;8.50;;
42840;SDS011;28491;46.898;7.660;2023-09-08T04:07:28;15.10;;;9.27;;
42840;SDS011;28491;46.898;7.660;2023-09-08T04:09:53;9.13;;;7.88;;
42840;SDS011;28491;46.898;7.660;2023-09-08T04:12:19;11.48;;;8.48;;
42840;SDS011;28491;46.898;7.660;2023-09-08T04:14:44;15.23;;;11.15;;
42840;SDS011;28491;46.898;7.660;2023-09-08T04:17:10;14.68;;;8.30;;
42840;SDS011;28491;46.898;7.660;2023-09-08T04:19:35;9.40;;;7.35;;
42840;SDS011;28491;46.898;7.660;2023-09-08T04:22:01;12.07;;;8.23;;
42840;SDS011;28491;46.898;7.660;2023-09-08T04:24:26;11.23;;;7.93;;
42840;SDS011;28491;46.898;7.660;2023-09-08T04:26:52;10.07;;;7.50;;
42840;SDS011;28491;46.898;7.660;2023-09-08T04:29:17;8.85;;;7.93;;
42840;SDS011;28491;46.898;7.660;2023-09-08T04:31:43;9.38;;;8.27;;
42840;SDS011;28491;46.898;7.660;2023-09-08T04:34:09;9.75;;;7.82;;
42840;SDS011;28491;46.898;7.660;2023-09-08T04:36:34;12.38;;;8.18;;
42840;SDS011;28491;46.898;7.660;2023-09-08T04:39:00;8.65;;;7.60;;
42840;SDS011;28491;46.898;7.660;2023-09-08T04:41:25;9.73;;;7.93;;
42840;SDS011;28491;46.898;7.660;2023-09-08T04:43:51;12.82;;;8.35;;
42840;SDS011;28491;46.898;7.660;2023-09-08T04:46:17;10.32;;;8.57;;
42840;SDS011;28491;46.898;7.660;2023-09-08T04:48:43;12.05;;;8.73;;
42840;SDS011;28491;46.898;7.660;2023-09-08T04:51:08;9.70;;;7.72;;
42840;SDS011;28491;46.898;7.660;2023-09-08T04:53:34;13.00;;;9.25;;
42840;SDS011;28491;46.898;7.660;2023-09-08T04:56:01;9.90;;;8.13;;
42840;SDS011;28491;46.898;7.660;2023-09-08T04:58:26;13.48;;;8.25;;
42840;SDS011;28491;46.898;7.660;2023-09-08T05:00:52;12.05;;;8.20;;
42840;SDS011;28491;46.898;7.660;2023-09-08T05:03:17;10.43;;;8.57;;
42840;SDS011;28491;46.898;7.660;2023-09-08T05:05:44;7.45;;;6.65;;
42840;SDS011;28491;46.898;7.660;2023-09-08T05:08:10;9.52;;;8.05;;
42840;SDS011;28491;46.898;7.660;2023-09-08T05:10:35;9.23;;;8.15;;
42840;SDS011;28491;46.898;7.660;2023-09-08T05:13:01;9.20;;;8.25;;
42840;SDS011;28491;46.898;7.660;2023-09-08T05:15:26;8.85;;;7.85;;
42840;SDS011;28491;46.898;7.660;2023-09-08T05:17:52;9.88;;;7.72;;
42840;SDS011;28491;46.898;7.660;2023-09-08T05:20:17;10.05;;;7.55;;
42840;SDS011;28491;46.898;7.660;2023-09-08T05:22:43;10.65;;;8.40;;
42840;SDS011;28491;46.898;7.660;2023-09-08T05:25:08;9.82;;;8.82;;
42840;SDS011;28491;46.898;7.660;2023-09-08T05:27:34;10.00;;;8.18;;
42840;SDS011;28491;46.898;7.660;2023-09-08T05:30:00;10.52;;;7.63;;
42840;SDS011;28491;46.898;7.660;2023-09-08T05:32:25;9.82;;;8.52;;
42840;SDS011;28491;46.898;7.660;2023-09-08T05:34:51;14.82;;;9.00;;
42840;SDS011;28491;46.898;7.660;2023-09-08T05:37:16;10.32;;;8.90;;
42840;SDS011;28491;46.898;7.660;2023-09-08T05:39:42;10.25;;;9.25;;
42840;SDS011;28491;46.898;7.660;2023-09-08T05:42:07;9.13;;;7.30;;
42840;SDS011;28491;46.898;7.660;2023-09-08T05:44:33;11.55;;;8.75;;
42840;SDS011;28491;46.898;7.660;2023-09-08T05:46:58;10.50;;;8.73;;
42840;SDS011;28491;46.898;7.660;2023-09-08T05:49:24;12.32;;;7.95;;
42840;SDS011;28491;46.898;7.660;2023-09-08T05:51:50;12.82;;;8.48;;
42840;SDS011;28491;46.898;7.660;2023-09-08T05:54:15;10.30;;;8.27;;
42840;SDS011;28491;46.898;7.660;2023-09-08T05:56:41;10.52;;;8.82;;
42840;SDS011;28491;46.898;7.660;2023-09-08T05:59:06;12.77;;;9.02;;
42840;SDS011;28491;46.898;7.660;2023-09-08T06:01:32;9.65;;;8.63;;
42840;SDS011;28491;46.898;7.660;2023-09-08T06:06:46;9.98;;;8.35;;
42840;SDS011;28491;46.898;7.660;2023-09-08T06:09:17;10.73;;;8.77;;
42840;SDS011;28491;46.898;7.660;2023-09-08T06:11:43;9.52;;;8.52;;
42840;SDS011;28491;46.898;7.660;2023-09-08T06:14:11;10.07;;;8.57;;
42840;SDS011;28491;46.898;7.660;2023-09-08T06:16:38;9.40;;;8.23;;
42840;SDS011;28491;46.898;7.660;2023-09-08T06:19:05;11.38;;;8.73;;
42840;SDS011;28491;46.898;7.660;2023-09-08T06:21:30;9.60;;;8.18;;
42840;SDS011;28491;46.898;7.660;2023-09-08T06:23:56;10.73;;;9.00;;
42840;SDS011;28491;46.898;7.660;2023-09-08T06:26:22;11.75;;;10.30;;
42840;SDS011;28491;46.898;7.660;2023-09-08T06:28:55;10.85;;;9.52;;
42840;SDS011;28491;46.898;7.660;2023-09-08T06:31:20;10.25;;;9.15;;
42840;SDS011;28491;46.898;7.660;2023-09-08T06:33:46;10.27;;;8.30;;
42840;SDS011;28491;46.898;7.660;2023-09-08T06:36:12;11.45;;;8.38;;
42840;SDS011;28491;46.898;7.660;2023-09-08T06:38:38;12.00;;;8.98;;
42840;SDS011;28491;46.898;7.660;2023-09-08T06:41:25;10.18;;;8.45;;
42840;SDS011;28491;46.898;7.660;2023-09-08T06:43:52;11.18;;;9.93;;
42840;SDS011;28491;46.898;7.660;2023-09-08T06:46:18;10.85;;;9.63;;
42840;SDS011;28491;46.898;7.660;2023-09-08T06:48:44;11.57;;;9.32;;
42840;SDS011;28491;46.898;7.660;2023-09-08T06:51:09;12.32;;;9.13;;
42840;SDS011;28491;46.898;7.660;2023-09-08T06:53:35;12.13;;;9.20;;
42840;SDS011;28491;46.898;7.660;2023-09-08T06:56:01;11.43;;;7.90;;
42840;SDS011;28491;46.898;7.660;2023-09-08T06:58:27;10.88;;;9.35;;
42840;SDS011;28491;46.898;7.660;2023-09-08T07:00:53;9.27;;;8.35;;
42840;SDS011;28491;46.898;7.660;2023-09-08T07:39:28;10.32;;;9.23;;
42840;SDS011;28491;46.898;7.660;2023-09-08T07:41:54;10.45;;;8.55;;
42840;SDS011;28491;46.898;7.660;2023-09-08T07:44:21;9.90;;;8.90;;
42840;SDS011;28491;46.898;7.660;2023-09-08T07:46:46;10.07;;;7.65;;
42840;SDS011;28491;46.898;7.660;2023-09-08T07:49:14;11.90;;;9.50;;
42840;SDS011;28491;46.898;7.660;2023-09-08T07:51:40;9.55;;;8.55;;
42840;SDS011;28491;46.898;7.660;2023-09-08T07:54:05;11.60;;;8.90;;
42840;SDS011;28491;46.898;7.660;2023-09-08T07:56:31;9.88;;;8.75;;
42840;SDS011;28491;46.898;7.660;2023-09-08T07:58:57;13.57;;;9.13;;
42840;SDS011;28491;46.898;7.660;2023-09-08T08:01:23;13.20;;;9.75;;
42840;SDS011;28491;46.898;7.660;2023-09-08T08:03:49;10.23;;;9.23;;
42840;SDS011;28491;46.898;7.660;2023-09-08T08:06:14;10.27;;;8.52;;
42840;SDS011;28491;46.898;7.660;2023-09-08T08:08:39;12.20;;;8.23;;
42840;SDS011;28491;46.898;7.660;2023-09-08T08:11:12;11.13;;;8.80;;
42840;SDS011;28491;46.898;7.660;2023-09-08T08:13:38;13.88;;;10.45;;
42840;SDS011;28491;46.898;7.660;2023-09-08T08:16:04;12.25;;;10.38;;
42840;SDS011;28491;46.898;7.660;2023-09-08T08:18:29;14.02;;;10.75;;
42840;SDS011;28491;46.898;7.660;2023-09-08T08:20:57;13.45;;;10.68;;
42840;SDS011;28491;46.898;7.660;2023-09-08T08:23:25;13.60;;;11.15;;
42840;SDS011;28491;46.898;7.660;2023-09-08T08:25:51;12.75;;;11.43;;
42840;SDS011;28491;46.898;7.660;2023-09-08T08:28:17;14.35;;;11.80;;
42840;SDS011;28491;46.898;7.660;2023-09-08T08:30:42;12.45;;;11.10;;
42840;SDS011;28491;46.898;7.660;2023-09-08T08:33:08;11.55;;;10.10;;
42840;SDS011;28491;46.898;7.660;2023-09-08T08:35:33;14.07;;;12.32;;
42840;SDS011;28491;46.898;7.660;2023-09-08T08:37:59;11.82;;;10.02;;
42840;SDS011;28491;46.898;7.660;2023-09-08T08:40:25;10.70;;;9.00;;
42840;SDS011;28491;46.898;7.660;2023-09-08T08:43:01;10.68;;;9.05;;
42840;SDS011;28491;46.898;7.660;2023-09-08T08:45:27;10.85;;;9.15;;
42840;SDS011;28491;46.898;7.660;2023-09-08T08:47:54;10.02;;;8.40;;
42840;SDS011;28491;46.898;7.660;2023-09-08T08:50:21;9.35;;;8.07;;
42840;SDS011;28491;46.898;7.660;2023-09-08T08:52:49;11.80;;;8.32;;
42840;SDS011;28491;46.898;7.660;2023-09-08T08:55:15;11.40;;;8.73;;
42840;SDS011;28491;46.898;7.660;2023-09-08T08:57:40;7.60;;;6.78;;
42840;SDS011;28491;46.898;7.660;2023-09-08T09:00:07;10.40;;;8.02;;
42840;SDS011;28491;46.898;7.660;2023-09-08T09:02:35;10.50;;;7.90;;
42840;SDS011;28491;46.898;7.660;2023-09-08T09:05:06;10.70;;;7.65;;
42840;SDS011;28491;46.898;7.660;2023-09-08T09:07:35;12.55;;;8.15;;
42840;SDS011;28491;46.898;7.660;2023-09-08T09:10:02;11.80;;;8.10;;
42840;SDS011;28491;46.898;7.660;2023-09-08T09:12:32;13.43;;;8.25;;
42840;SDS011;28491;46.898;7.660;2023-09-08T09:14:58;10.45;;;8.52;;
42840;SDS011;28491;46.898;7.660;2023-09-08T09:17:25;11.23;;;7.95;;
42840;SDS011;28491;46.898;7.660;2023-09-08T09:19:50;9.38;;;8.00;;
42840;SDS011;28491;46.898;7.660;2023-09-08T09:22:36;11.65;;;8.05;;
42840;SDS011;28491;46.898;7.660;2023-09-08T09:25:02;9.32;;;7.68;;
42840;SDS011;28491;46.898;7.660;2023-09-08T09:27:30;9.48;;;8.15;;
42840;SDS011;28491;46.898;7.660;2023-09-08T09:29:56;16.00;;;7.68;;
42840;SDS011;28491;46.898;7.660;2023-09-08T09:32:23;9.02;;;8.02;;
42840;SDS011;28491;46.898;7.660;2023-09-08T09:34:50;9.15;;;8.25;;
42840;SDS011;28491;46.898;7.660;2023-09-08T09:37:22;8.70;;;7.80;;
42840;SDS011;28491;46.898;7.660;2023-09-08T09:39:51;9.45;;;7.85;;
42840;SDS011;28491;46.898;7.660;2023-09-08T09:42:18;8.88;;;7.28;;
42840;SDS011;28491;46.898;7.660;2023-09-08T09:44:44;12.13;;;7.75;;
42840;SDS011;28491;46.898;7.660;2023-09-08T09:49:48;9.30;;;7.60;;
42840;SDS011;28491;46.898;7.660;2023-09-08T09:52:21;9.05;;;7.75;;
42840;SDS011;28491;46.898;7.660;2023-09-08T09:54:56;8.73;;;7.68;;
42840;SDS011;28491;46.898;7.660;2023-09-08T09:57:23;11.45;;;7.47;;
42840;SDS011;28491;46.898;7.660;2023-09-08T09:59:49;12.98;;;8.50;;
42840;SDS011;28491;46.898;7.660;2023-09-08T10:02:19;10.13;;;7.82;;
42840;SDS011;28491;46.898;7.660;2023-09-08T10:04:48;8.57;;;7.55;;
42840;SDS011;28491;46.898;7.660;2023-09-08T10:07:17;8.30;;;7.43;;
42840;SDS011;28491;46.898;7.660;2023-09-08T10:09:43;9.00;;;7.00;;
42840;SDS011;28491;46.898;7.660;2023-09-08T10:12:09;10.63;;;7.80;;
42840;SDS011;28491;46.898;7.660;2023-09-08T10:14:50;8.20;;;6.75;;
42840;SDS011;28491;46.898;7.660;2023-09-08T10:17:19;10.75;;;7.18;;
42840;SDS011;28491;46.898;7.660;2023-09-08T10:19:53;8.30;;;7.32;;
42840;SDS011;28491;46.898;7.660;2023-09-08T10:22:22;7.60;;;6.65;;
42840;SDS011;28491;46.898;7.660;2023-09-08T10:24:51;8.13;;;6.95;;
42840;SDS011;28491;46.898;7.660;2023-09-08T10:27:19;10.20;;;7.60;;
42840;SDS011;28491;46.898;7.660;2023-09-08T10:29:48;8.20;;;6.75;;
42840;SDS011;28491;46.898;7.660;2023-09-08T10:32:15;12.90;;;8.73;;
42840;SDS011;28491;46.898;7.660;2023-09-08T10:34:43;16.65;;;8.18;;
42840;SDS011;28491;46.898;7.660;2023-09-08T10:37:22;16.05;;;6.50;;
42840;SDS011;28491;46.898;7.660;2023-09-08T10:39:50;7.50;;;5.95;;
42840;SDS011;28491;46.898;7.660;2023-09-08T10:47:21;7.28;;;6.38;;
42840;SDS011;28491;46.898;7.660;2023-09-08T10:49:48;8.48;;;6.13;;
42840;SDS011;28491;46.898;7.660;2023-09-08T10:52:15;7.78;;;6.10;;
42840;SDS011;28491;46.898;7.660;2023-09-08T10:54:42;9.15;;;6.10;;
42840;SDS011;28491;46.898;7.660;2023-09-08T10:57:16;7.95;;;6.38;;
42840;SDS011;28491;46.898;7.660;2023-09-08T10:59:50;7.38;;;5.63;;
42840;SDS011;28491;46.898;7.660;2023-09-08T11:05:06;6.75;;;6.03;;
42840;SDS011;28491;46.898;7.660;2023-09-08T11:07:42;10.45;;;6.07;;
42840;SDS011;28491;46.898;7.660;2023-09-08T11:10:09;7.75;;;6.22;;
42840;SDS011;28491;46.898;7.660;2023-09-08T11:12:36;7.53;;;6.65;;
42840;SDS011;28491;46.898;7.660;2023-09-08T11:15:02;8.63;;;6.07;;
42840;SDS011;28491;46.898;7.660;2023-09-08T11:17:33;7.45;;;5.88;;
42840;SDS011;28491;46.898;7.660;2023-09-08T11:20:00;6.80;;;5.55;;
42840;SDS011;28491;46.898;7.660;2023-09-08T11:22:33;9.82;;;6.32;;
42840;SDS011;28491;46.898;7.660;2023-09-08T11:27:34;7.57;;;6.73;;
42840;SDS011;28491;46.898;7.660;2023-09-08T11:29:59;6.70;;;5.63;;
42840;SDS011;28491;46.898;7.660;2023-09-08T11:32:31;9.80;;;6.75;;
42840;SDS011;28491;46.898;7.660;2023-09-08T11:35:07;7.03;;;5.75;;
42840;SDS011;28491;46.898;7.660;2023-09-08T11:37:39;7.43;;;6.63;;
42840;SDS011;28491;46.898;7.660;2023-09-08T11:40:06;6.45;;;5.70;;
42840;SDS011;28491;46.898;7.660;2023-09-08T11:42:42;7.05;;;5.75;;
42840;SDS011;28491;46.898;7.660;2023-09-08T11:45:16;11.70;;;6.10;;
42840;SDS011;28491;46.898;7.660;2023-09-08T11:47:52;6.03;;;5.43;;
42840;SDS011;28491;46.898;7.660;2023-09-08T11:50:30;7.35;;;6.13;;
42840;SDS011;28491;46.898;7.660;2023-09-08T11:52:56;7.93;;;5.82;;
42840;SDS011;28491;46.898;7.660;2023-09-08T11:55:27;8.65;;;5.95;;
42840;SDS011;28491;46.898;7.660;2023-09-08T11:57:53;9.60;;;6.40;;
42840;SDS011;28491;46.898;7.660;2023-09-08T12:00:22;7.25;;;6.22;;
42840;SDS011;28491;46.898;7.660;2023-09-08T12:02:49;7.28;;;5.53;;
42840;SDS011;28491;46.898;7.660;2023-09-08T12:05:24;7.00;;;5.93;;
42840;SDS011;28491;46.898;7.660;2023-09-08T12:07:54;7.80;;;6.57;;
42840;SDS011;28491;46.898;7.660;2023-09-08T12:10:29;8.85;;;7.45;;
42840;SDS011;28491;46.898;7.660;2023-09-08T12:13:22;8.05;;;6.10;;
42840;SDS011;28491;46.898;7.660;2023-09-08T12:15:50;13.38;;;6.75;;
42840;SDS011;28491;46.898;7.660;2023-09-08T12:18:16;7.70;;;6.18;;
42840;SDS011;28491;46.898;7.660;2023-09-08T12:21:04;9.40;;;6.53;;
42840;SDS011;28491;46.898;7.660;2023-09-08T12:23:40;17.00;;;7.28;;
42840;SDS011;28491;46.898;7.660;2023-09-08T12:26:15;7.40;;;6.60;;
42840;SDS011;28491;46.898;7.660;2023-09-08T12:28:50;7.30;;;6.53;;
42840;SDS011;28491;46.898;7.660;2023-09-08T12:31:25;6.93;;;6.22;;
42840;SDS011;28491;46.898;7.660;2023-09-08T12:33:50;8.07;;;6.80;;
42840;SDS011;28491;46.898;7.660;2023-09-08T12:36:20;8.25;;;6.38;;
42840;SDS011;28491;46.898;7.660;2023-09-08T12:38:52;7.93;;;6.13;;
42840;SDS011;28491;46.898;7.660;2023-09-08T12:41:18;13.65;;;6.32;;
42840;SDS011;28491;46.898;7.660;2023-09-08T12:43:45;8.45;;;5.88;;
42840;SDS011;28491;46.898;7.660;2023-09-08T12:46:11;7.47;;;6.13;;
42840;SDS011;28491;46.898;7.660;2023-09-08T12:48:39;7.40;;;6.63;;
42840;SDS011;28491;46.898;7.660;2023-09-08T12:51:05;7.00;;;5.65;;
42840;SDS011;28491;46.898;7.660;2023-09-08T12:53:33;6.90;;;5.70;;
42840;SDS011;28491;46.898;7.660;2023-09-08T12:56:02;6.28;;;5.68;;
42840;SDS011;28491;46.898;7.660;2023-09-08T12:58:27;7.25;;;6.07;;
42840;SDS011;28491;46.898;7.660;2023-09-08T13:00:53;9.27;;;6.63;;
42840;SDS011;28491;46.898;7.660;2023-09-08T13:03:19;6.97;;;5.60;;
42840;SDS011;28491;46.898;7.660;2023-09-08T13:05:45;10.40;;;6.05;;
42840;SDS011;28491;46.898;7.660;2023-09-08T13:08:10;10.15;;;6.43;;
42840;SDS011;28491;46.898;7.660;2023-09-08T13:10:36;8.65;;;6.20;;
42840;SDS011;28491;46.898;7.660;2023-09-08T13:13:02;7.10;;;6.32;;
42840;SDS011;28491;46.898;7.660;2023-09-08T13:15:29;7.45;;;6.57;;
42840;SDS011;28491;46.898;7.660;2023-09-08T13:17:55;8.52;;;5.53;;
42840;SDS011;28491;46.898;7.660;2023-09-08T13:20:20;9.23;;;6.03;;
42840;SDS011;28491;46.898;7.660;2023-09-08T13:22:46;6.97;;;5.97;;
42840;SDS011;28491;46.898;7.660;2023-09-08T13:25:12;6.80;;;5.45;;
42840;SDS011;28491;46.898;7.660;2023-09-08T13:27:40;8.10;;;5.80;;
42840;SDS011;28491;46.898;7.660;2023-09-08T13:30:09;8.68;;;7.32;;
42840;SDS011;28491;46.898;7.660;2023-09-08T13:32:37;6.32;;;5.40;;
42840;SDS011;28491;46.898;7.660;2023-09-08T13:35:02;8.43;;;6.07;;
42840;SDS011;28491;46.898;7.660;2023-09-08T13:37:29;8.20;;;5.53;;
42840;SDS011;28491;46.898;7.660;2023-09-08T13:39:55;8.77;;;5.82;;
42840;SDS011;28491;46.898;7.660;2023-09-08T13:42:21;6.15;;;5.50;;
42840;SDS011;28491;46.898;7.660;2023-09-08T13:44:47;6.30;;;5.47;;
42840;SDS011;28491;46.898;7.660;2023-09-08T13:47:12;9.85;;;6.00;;
42840;SDS011;28491;46.898;7.660;2023-09-08T13:49:38;6.35;;;5.75;;
42840;SDS011;28491;46.898;7.660;2023-09-08T13:52:03;6.20;;;5.53;;
42840;SDS011;28491;46.898;7.660;2023-09-08T13:54:29;6.32;;;5.13;;
42840;SDS011;28491;46.898;7.660;2023-09-08T13:56:58;6.75;;;5.50;;
42840;SDS011;28491;46.898;7.660;2023-09-08T13:59:28;8.82;;;5.75;;
42840;SDS011;28491;46.898;7.660;2023-09-08T14:01:54;6.15;;;5.30;;
42840;SDS011;28491;46.898;7.660;2023-09-08T14:04:21;7.15;;;6.32;;
42840;SDS011;28491;46.898;7.660;2023-09-08T14:06:46;6.57;;;5.32;;
42840;SDS011;28491;46.898;7.660;2023-09-08T14:09:13;7.45;;;6.18;;
42840;SDS011;28491;46.898;7.660;2023-09-08T14:11:39;5.93;;;5.30;;
42840;SDS011;28491;46.898;7.660;2023-09-08T14:14:04;9.30;;;5.55;;
42840;SDS011;28491;46.898;7.660;2023-09-08T14:16:30;7.65;;;5.38;;
42840;SDS011;28491;46.898;7.660;2023-09-08T14:18:55;6.32;;;5.13;;
42840;SDS011;28491;46.898;7.660;2023-09-08T14:21:22;7.28;;;6.10;;
42840;SDS011;28491;46.898;7.660;2023-09-08T14:23:47;7.68;;;6.22;;
42840;SDS011;28491;46.898;7.660;2023-09-08T14:26:13;7.65;;;5.38;;
42840;SDS011;28491;46.898;7.660;2023-09-08T14:28:38;6.85;;;5.82;;
42840;SDS011;28491;46.898;7.660;2023-09-08T14:31:04;6.72;;;5.55;;
42840;SDS011;28491;46.898;7.660;2023-09-08T14:33:29;7.35;;;5.65;;
42840;SDS011;28491;46.898;7.660;2023-09-08T14:35:55;6.85;;;5.82;;
42840;SDS011;28491;46.898;7.660;2023-09-08T14:38:21;6.55;;;5.85;;
42840;SDS011;28491;46.898;7.660;2023-09-08T14:40:53;8.90;;;5.25;;
42840;SDS011;28491;46.898;7.660;2023-09-08T14:43:23;8.52;;;6.55;;
42840;SDS011;28491;46.898;7.660;2023-09-08T14:45:50;8.80;;;5.80;;
42840;SDS011;28491;46.898;7.660;2023-09-08T14:48:16;11.68;;;5.18;;
42840;SDS011;28491;46.898;7.660;2023-09-08T14:50:42;7.18;;;6.30;;
42840;SDS011;28491;46.898;7.660;2023-09-08T14:53:07;6.85;;;5.88;;
42840;SDS011;28491;46.898;7.660;2023-09-08T14:55:33;7.28;;;5.50;;
42840;SDS011;28491;46.898;7.660;2023-09-08T14:57:59;6.68;;;5.35;;
42840;SDS011;28491;46.898;7.660;2023-09-08T15:00:25;6.95;;;5.80;;
42840;SDS011;28491;46.898;7.660;2023-09-08T15:02:50;6.53;;;5.05;;
42840;SDS011;28491;46.898;7.660;2023-09-08T15:05:16;5.97;;;5.20;;
42840;SDS011;28491;46.898;7.660;2023-09-08T15:07:41;8.75;;;5.65;;
42840;SDS011;28491;46.898;7.660;2023-09-08T15:10:07;7.15;;;5.47;;
42840;SDS011;28491;46.898;7.660;2023-09-08T15:12:33;6.70;;;5.40;;
42840;SDS011;28491;46.898;7.660;2023-09-08T15:14:58;6.75;;;5.18;;
42840;SDS011;28491;46.898;7.660;2023-09-08T15:17:24;6.65;;;5.18;;
42840;SDS011;28491;46.898;7.660;2023-09-08T15:19:49;6.82;;;4.65;;
42840;SDS011;28491;46.898;7.660;2023-09-08T15:22:15;8.02;;;5.63;;
42840;SDS011;28491;46.898;7.660;2023-09-08T15:24:40;7.28;;;5.65;;
42840;SDS011;28491;46.898;7.660;2023-09-08T15:27:06;7.55;;;5.53;;
42840;SDS011;28491;46.898;7.660;2023-09-08T15:29:31;6.32;;;5.50;;
42840;SDS011;28491;46.898;7.660;2023-09-08T15:31:57;6.03;;;5.03;;